Flight Track Log - Related Links

Times and Time Zones

All times are in EDT time to prevent confusion due to time zone crossing. See the C-GGER flight status page for this flight to view local times or setup timezone preferences in your user account.

Time Position Orientation Groundspeed Altitude Reporting Facility
EDT Latitude Longitude Course Direction KTS MPH feet Rate Location/Type
Fri 08:30:36 AM 43.8833 -79.3833 305° West 120 138 2,300  Level Toronto Center
Fri 08:31:36 AM 43.9000 -79.4167 305° West 130 150 3,100 400 Climbing Toronto Center
Fri 08:32:36 AM 43.9333 -79.4667 313° West 150 173 3,100  Level Toronto Center
Fri 08:33:36 AM 43.9667 -79.5000 324° Northwest 160 184 3,100  Level Toronto Center
Fri 08:34:36 AM 44.0000 -79.5333 324° Northwest 160 184 3,100  Level Toronto Center
Fri 08:35:18 AM 43.9833 -79.5833 245° Southwest 170 196 3,100  Level Toronto Center
Fri 08:36:18 AM 43.9667 -79.6500 251° West 170 196 3,100  Level Toronto Center
Fri 08:37:18 AM 43.9667 -79.7000 270° West 170 196 3,100  Level Toronto Center
Fri 08:38:18 AM 43.9500 -79.7667 251° West 170 196 3,100  Level Toronto Center
Fri 08:39:18 AM 43.9333 -79.8333 251° West 170 196 3,100 400 Level Toronto Center
Fri 08:40:18 AM 43.9333 -79.9167 270° West 170 196 3,900 450 Climbing Toronto Center
Fri 08:41:18 AM 43.9167 -79.9500 235° Southwest 170 196 4,000 100 Climbing Toronto Center
Fri 08:42:18 AM 43.9000 -80.0333 255° West 170 196 4,100  Climbing Toronto Center
Fri 08:43:18 AM 43.9000 -80.1000 270° West 170 196 4,000 -50 Descending Toronto Center
Fri 08:44:18 AM 43.8500 -80.1333 206° Southwest 180 207 4,000 50 Level Toronto Center
Fri 08:45:18 AM 43.8000 -80.1333 180° South 190 219 4,100  Climbing Toronto Center
Fri 08:46:18 AM 43.7500 -80.1667 206° Southwest 190 219 4,000  Descending Toronto Center
Fri 08:47:18 AM 43.7000 -80.1833 194° South 190 219 4,100  Climbing Toronto Center
Fri 08:48:18 AM 43.6500 -80.2167 206° Southwest 190 219 4,000  Descending Toronto Center
Fri 08:49:18 AM 43.6000 -80.2333 194° South 190 219 4,100  Climbing Toronto Center
Fri 08:51:18 AM 43.5167 -80.2500 188° South 150 173 4,000 -33 Descending Toronto Center
Fri 08:52:18 AM 43.4833 -80.2833 216° Southwest 130 150 4,000  Level Toronto Center
Fri 08:53:50 AM 43.5167 -80.2500 36° Northeast 130 150 4,000  Level Toronto Center
Fri 08:54:50 AM 43.5167 -80.2000 90° East 130 150 4,000  Level Toronto Center
Fri 08:55:50 AM 43.5000 -80.2333 235° Southwest 100 115 4,000  Level Toronto Center
Fri 08:56:50 AM 43.4833 -80.2833 245° Southwest 110 127 4,000 -100 Level Toronto Center
Fri 08:57:50 AM 43.5000 -80.3000 324° Northwest 100 115 3,800 -350 Descending Toronto Center
Fri 08:58:50 AM 43.5167 -80.2500 65° Northeast 130 150 3,300 -250 Descending Toronto Center
Fri 08:59:50 AM 43.5333 -80.2000 65° Northeast 130 150 3,300  Level Toronto Center
Fri 09:00:50 AM 43.5167 -80.1833 144° Southeast 120 138 3,300  Level Toronto Center
Fri 09:01:50 AM 43.5000 -80.2000 216° Southwest 110 127 3,300 -300 Level Toronto Center
Fri 09:02:50 AM 43.4833 -80.2500 245° Southwest 110 127 2,700 -600 Descending Toronto Center
Fri 09:03:50 AM 43.4833 -80.3000 270° West 110 127 2,100 -550 Descending Toronto Center
Fri 09:04:50 AM 43.4667 -80.3167 216° Southwest 110 127 1,600 347 Descending Toronto Center
Fri 09:05:51 AM 43.4833 -80.3500 305° West 140 161 2,800 694 Climbing Toronto Center
Fri 09:06:51 AM 43.5333 -80.3500 360° North 180 207 3,000 100 Climbing Toronto Center
Fri 09:07:51 AM 43.5833 -80.3167 26° Northeast 170 196 3,000  Level Toronto Center
Fri 09:08:51 AM 43.6167 -80.3000 20° North 180 207 3,000  Level Toronto Center
Fri 09:09:51 AM 43.6667 -80.2833 14° North 180 207 3,000  Level Toronto Center
Fri 09:10:51 AM 43.7167 -80.2500 26° Northeast 170 196 3,000  Level Toronto Center
Fri 09:11:51 AM 43.7500 -80.2167 36° Northeast 180 207 3,000  Level Toronto Center
Fri 09:12:51 AM 43.7833 -80.1667 47° Northeast 180 207 3,000  Level Toronto Center
Fri 09:13:51 AM 43.8000 -80.1000 71° East 190 219 3,000  Level Toronto Center
Fri 09:14:51 AM 43.8333 -80.0333 55° Northeast 180 207 3,000  Level Toronto Center
Fri 09:15:51 AM 43.8500 -79.9833 65° Northeast 180 207 3,000  Level Toronto Center
Fri 09:16:51 AM 43.8833 -79.9167 55° Northeast 180 207 3,000  Level Toronto Center
Fri 09:17:51 AM 43.9167 -79.8333 61° Northeast 180 207 3,000  Level Toronto Center
Fri 09:18:51 AM 43.9333 -79.8000 55° Northeast 180 207 3,000  Level Toronto Center
Fri 09:19:51 AM 43.9667 -79.7333 55° Northeast 180 207 3,000  Level Toronto Center
Fri 09:20:51 AM 43.9833 -79.6833 65° Northeast 180 207 3,000  Level Toronto Center
Fri 09:21:51 AM 44.0000 -79.6167 71° East 180 207 3,000  Level Toronto Center
Fri 09:22:51 AM 44.0000 -79.5167 90° East 190 219 3,000  Level Toronto Center
Fri 09:23:51 AM 44.0000 -79.4500 90° East 190 219 3,000  Level Toronto Center
Fri 09:24:51 AM 43.9667 -79.4000 133° Southeast 200 230 3,000  Level Toronto Center
Fri 09:25:51 AM 43.9333 -79.3500 133° Southeast 190 219 3,000  Level Toronto Center
Fri 09:26:51 AM 43.9000 -79.2833 125° Southeast 200 230 3,000  Level Toronto Center
Fri 09:27:51 AM 43.8500 -79.2333 144° Southeast 200 230 3,000  Level Toronto Center
Fri 09:28:51 AM 43.8167 -79.2000 144° Southeast 180 207 3,000  Level Toronto Center
Fri 09:29:51 AM 43.8000 -79.1500 115° Southeast 160 184 3,000  Level Toronto Center
Fri 09:30:51 AM 43.7667 -79.1667 200° South 130 150 3,000  Level Toronto Center
Fri 09:31:51 AM 43.7333 -79.2000 216° Southwest 120 138 3,000  Level Toronto Center
Fri 09:32:51 AM 43.7167 -79.2333 235° Southwest 120 138 3,000 -50 Level Toronto Center
Fri 09:33:51 AM 43.7333 -79.2333 360° North 110 127 2,900 -350 Descending Toronto Center
Fri 09:34:51 AM 43.7667 -79.2667 324° Northwest 110 127 2,300 -600 Descending Toronto Center
Fri 09:35:51 AM 43.8000 -79.2833 340° North 100 115 1,700 -600 Descending Toronto Center
Fri 09:37:00 AM 43.8500 -79.3667 300° West  Level FlightAware Approximate
Fri 09:44:00 AM 43.8622 -79.3700 300° West  Level Estimated

Login

Don't have an account? Register now (free) for customized features, flight alerts, and more!